Terminal Aerodrome Forecast
Issued by NWS

Home | Current Version | Previous Version | Text Only | Print | Product List | Glossary On
Versions: 1 2 3 4 5 6 7 8 9 10 11 12 13 14 15 16 17 18 19 20
000
FTUS41 KPBZ 020700 AAA
TAFLBE
TAF AMD
KLBE 020743Z 0208/0306 27008KT P6SM -SN OVC010
     FM022000 28008KT P6SM BKN025
     FM030100 VRB03KT P6SM BKN015=

USA.gov is the U.S. government's official web portal to all federal, state and local government web resources and services.